Have a Safe July 4th! 

Flight Track Log - Related Links

Times and Time Zones

All times are in EDT time to prevent confusion due to time zone crossing. See the KAP624 flight status page for this flight to view local times or setup timezone preferences in your user account.

Time Position Orientation Groundspeed Altitude Reporting Facility
EDT Latitude Longitude Course Direction KTS MPH feet Rate Location/Type
Tue 01:43:38 PM 42.3500 -71.0000 114° Southeast 94 108 400  Level KA90
Tue 01:44:50 PM 42.3333 -70.9500 114° Southeast 121 139 1,300 727 Climbing KA90
Tue 01:45:50 PM 42.3167 -70.9000 114° Southeast 123 142 2,000 750 Climbing KA90
Tue 01:46:50 PM 42.3000 -70.8667 124° Southeast 131 151 2,800 750 Climbing KA90
Tue 01:47:50 PM 42.2833 -70.8167 114° Southeast 135 155 3,500 632 Climbing KA90
Tue 01:48:44 PM 42.2500 -70.8000 160° South 138 159 4,000 579 Climbing KA90
Tue 01:49:44 PM 42.2167 -70.7667 143° Southeast 138 159 4,600 450 Climbing KA90
Tue 01:50:44 PM 42.1833 -70.7500 160° South 141 162 4,900 182 Climbing KA90
Tue 01:51:56 PM 42.1500 -70.7167 143° Southeast 156 180 5,000 48 Climbing KA90
Tue 01:52:50 PM 42.1000 -70.6833 154° Southeast 157 181 5,000  Level KA90
Tue 01:53:44 PM 42.0667 -70.6667 160° South 160 184 5,000  Level KA90
Tue 01:54:44 PM 42.0333 -70.6333 143° Southeast 160 184 5,000  Level KA90
Tue 01:56:00 PM 41.9914 -70.6021 151° Southeast  Level Estimated
Tue 02:03:00 PM 41.7593 -70.4303 151° Southeast  Level Estimated
Tue 02:04:00 PM 41.7262 -70.4058 151° Southeast  Level Estimated
Tue 02:05:00 PM 41.6930 -70.3814 151° Southeast  Level Estimated
Tue 02:06:00 PM 41.6598 -70.3570 151° Southeast  Level Estimated
Tue 02:07:00 PM 41.6266 -70.3326 151° Southeast  Level Estimated
Tue 02:08:00 PM 41.5934 -70.3083 151° Southeast  Level Estimated
Tue 02:09:00 PM 41.5603 -70.2840 151° Southeast  Level Estimated
Tue 02:10:00 PM 41.5271 -70.2597 151° Southeast  Level Estimated
Tue 02:11:00 PM 41.4939 -70.2354 151° Southeast  Level Estimated
Tue 02:12:00 PM 41.4607 -70.2112 151° Southeast  Level Estimated
Tue 02:13:00 PM 41.4274 -70.1870 151° Southeast  Level Estimated
Tue 02:14:00 PM 41.3942 -70.1628 151° Southeast  Level Estimated
Tue 02:15:00 PM 41.3610 -70.1386 151° Southeast  Level Estimated
Tue 02:16:00 PM 41.3278 -70.1144 151° Southeast  Level Estimated
Tue 02:17:00 PM 41.2945 -70.0903 151° Southeast  Level Estimated
Tue 02:18:00 PM 41.2613 -70.0662 151° Southeast  Level Estimated
Tue 02:19:00 PM 41.2531 -70.0603 151° Southeast  Level Estimated
Tue 02:20:00 PM 41.2531 -70.0603 72° East  Level Estimated
Tue 02:21:00 PM 41.2531 -70.0603 72° East  Level Estimated
Tue 02:22:00 PM 41.2531 -70.0603 72° East  Level Estimated
Tue 02:23:00 PM 41.2531 -70.0603 72° East  Level Estimated

Login

Don't have an account? Register now (free) for customized features, flight alerts, and more!